sensor_id;sensor_type;location;lat;lon;timestamp;pressure;altitude;pressure_sealevel;temperature;humidity
61528;BME280;47395;42.032;-8.634;2023-04-08T00:00:13;100836.88;;;13.14;65.01
61528;BME280;47395;42.032;-8.634;2023-04-08T00:02:15;100828.84;;;13.16;65.22
61528;BME280;47395;42.032;-8.634;2023-04-08T00:04:15;100834.22;;;13.14;65.36
61528;BME280;47395;42.032;-8.634;2023-04-08T00:06:16;100837.81;;;13.13;65.61
61528;BME280;47395;42.032;-8.634;2023-04-08T00:08:17;100836.00;;;13.14;65.52
61528;BME280;47395;42.032;-8.634;2023-04-08T00:10:18;100837.69;;;13.15;65.61
61528;BME280;47395;42.032;-8.634;2023-04-08T00:12:19;100835.34;;;13.10;65.55
61528;BME280;47395;42.032;-8.634;2023-04-08T00:14:20;100836.19;;;13.11;65.65
61528;BME280;47395;42.032;-8.634;2023-04-08T00:16:21;100837.28;;;13.06;65.76
61528;BME280;47395;42.032;-8.634;2023-04-08T00:18:22;100835.59;;;13.05;65.91
61528;BME280;47395;42.032;-8.634;2023-04-08T00:20:23;100828.84;;;13.00;65.85
61528;BME280;47395;42.032;-8.634;2023-04-08T00:22:24;100847.66;;;12.95;66.32
61528;BME280;47395;42.032;-8.634;2023-04-08T00:24:25;100842.63;;;12.90;66.37
61528;BME280;47395;42.032;-8.634;2023-04-08T00:26:26;100826.25;;;12.84;66.62
61528;BME280;47395;42.032;-8.634;2023-04-08T00:28:27;100836.81;;;12.84;66.72
61528;BME280;47395;42.032;-8.634;2023-04-08T00:30:29;100838.97;;;12.77;67.28
61528;BME280;47395;42.032;-8.634;2023-04-08T00:32:29;100835.66;;;12.73;67.76
61528;BME280;47395;42.032;-8.634;2023-04-08T00:34:31;100842.03;;;12.69;68.19
61528;BME280;47395;42.032;-8.634;2023-04-08T00:36:32;100843.00;;;12.68;68.63
61528;BME280;47395;42.032;-8.634;2023-04-08T00:38:33;100837.13;;;12.63;68.80
61528;BME280;47395;42.032;-8.634;2023-04-08T00:40:34;100839.84;;;12.61;69.13
61528;BME280;47395;42.032;-8.634;2023-04-08T00:42:35;100846.31;;;12.56;69.51
61528;BME280;47395;42.032;-8.634;2023-04-08T00:44:36;100838.72;;;12.49;69.70
61528;BME280;47395;42.032;-8.634;2023-04-08T00:46:38;100850.22;;;12.48;69.91
61528;BME280;47395;42.032;-8.634;2023-04-08T00:48:40;100838.22;;;12.43;70.13
61528;BME280;47395;42.032;-8.634;2023-04-08T00:50:42;100838.97;;;12.45;69.85
61528;BME280;47395;42.032;-8.634;2023-04-08T00:52:43;100846.16;;;12.43;69.92
61528;BME280;47395;42.032;-8.634;2023-04-08T00:54:44;100845.34;;;12.40;70.53
61528;BME280;47395;42.032;-8.634;2023-04-08T00:56:45;100847.31;;;12.37;70.89
61528;BME280;47395;42.032;-8.634;2023-04-08T00:58:47;100846.63;;;12.33;71.04
61528;BME280;47395;42.032;-8.634;2023-04-08T01:00:59;100844.25;;;12.29;71.45
61528;BME280;47395;42.032;-8.634;2023-04-08T01:03:15;100837.34;;;12.26;71.19
61528;BME280;47395;42.032;-8.634;2023-04-08T01:05:33;100846.28;;;12.23;71.17
61528;BME280;47395;42.032;-8.634;2023-04-08T01:07:45;100830.69;;;12.19;71.05
61528;BME280;47395;42.032;-8.634;2023-04-08T01:10:01;100841.50;;;12.14;70.90
61528;BME280;47395;42.032;-8.634;2023-04-08T01:12:05;100841.66;;;12.11;70.99
61528;BME280;47395;42.032;-8.634;2023-04-08T01:14:08;100843.69;;;12.06;70.61
61528;BME280;47395;42.032;-8.634;2023-04-08T01:16:14;100831.63;;;12.00;70.63
61528;BME280;47395;42.032;-8.634;2023-04-08T01:18:16;100833.59;;;11.96;70.63
61528;BME280;47395;42.032;-8.634;2023-04-08T01:20:18;100835.53;;;11.93;70.12
61528;BME280;47395;42.032;-8.634;2023-04-08T01:25:11;100832.28;;;11.87;70.70
61528;BME280;47395;42.032;-8.634;2023-04-08T01:27:15;100822.13;;;11.80;71.07
61528;BME280;47395;42.032;-8.634;2023-04-08T01:29:17;100828.28;;;11.80;70.85
61528;BME280;47395;42.032;-8.634;2023-04-08T01:31:19;100826.56;;;11.79;70.84
61528;BME280;47395;42.032;-8.634;2023-04-08T01:33:23;100826.47;;;11.81;71.04
61528;BME280;47395;42.032;-8.634;2023-04-08T01:35:24;100826.56;;;11.79;70.67
61528;BME280;47395;42.032;-8.634;2023-04-08T01:37:25;100825.53;;;11.82;70.66
61528;BME280;47395;42.032;-8.634;2023-04-08T01:39:28;100813.28;;;11.81;70.70
61528;BME280;47395;42.032;-8.634;2023-04-08T01:41:30;100818.41;;;11.84;70.51
61528;BME280;47395;42.032;-8.634;2023-04-08T01:43:34;100818.31;;;11.85;70.13
61528;BME280;47395;42.032;-8.634;2023-04-08T01:45:38;100813.81;;;11.87;70.19
61528;BME280;47395;42.032;-8.634;2023-04-08T01:47:40;100820.78;;;11.88;70.09
61528;BME280;47395;42.032;-8.634;2023-04-08T01:49:41;100813.72;;;11.89;69.64
61528;BME280;47395;42.032;-8.634;2023-04-08T01:51:43;100811.09;;;11.89;69.19
61528;BME280;47395;42.032;-8.634;2023-04-08T01:53:45;100808.38;;;11.91;69.10
61528;BME280;47395;42.032;-8.634;2023-04-08T01:55:48;100822.50;;;11.90;68.36
61528;BME280;47395;42.032;-8.634;2023-04-08T01:57:52;100814.66;;;11.88;67.91
61528;BME280;47395;42.032;-8.634;2023-04-08T01:59:56;100813.81;;;11.87;68.33
61528;BME280;47395;42.032;-8.634;2023-04-08T02:02:01;100815.69;;;11.85;68.31
61528;BME280;47395;42.032;-8.634;2023-04-08T02:04:03;100805.06;;;11.87;68.08
61528;BME280;47395;42.032;-8.634;2023-04-08T02:06:04;100818.06;;;11.90;68.12
61528;BME280;47395;42.032;-8.634;2023-04-08T02:08:05;100811.31;;;11.84;68.39
61528;BME280;47395;42.032;-8.634;2023-04-08T02:10:06;100809.94;;;11.77;68.90
61528;BME280;47395;42.032;-8.634;2023-04-08T02:12:07;100797.31;;;11.66;69.15
61528;BME280;47395;42.032;-8.634;2023-04-08T02:14:08;100805.16;;;11.68;69.29
61528;BME280;47395;42.032;-8.634;2023-04-08T02:16:15;100799.34;;;11.61;69.63
61528;BME280;47395;42.032;-8.634;2023-04-08T02:18:25;100801.47;;;11.54;69.92
61528;BME280;47395;42.032;-8.634;2023-04-08T02:20:46;100803.16;;;11.55;70.30
61528;BME280;47395;42.032;-8.634;2023-04-08T02:22:55;100805.19;;;11.50;70.10
61528;BME280;47395;42.032;-8.634;2023-04-08T02:24:58;100792.91;;;11.49;70.49
61528;BME280;47395;42.032;-8.634;2023-04-08T02:27:02;100801.81;;;11.46;70.18
61528;BME280;47395;42.032;-8.634;2023-04-08T02:29:04;100804.47;;;11.46;70.29
61528;BME280;47395;42.032;-8.634;2023-04-08T02:31:09;100810.75;;;11.44;70.58
61528;BME280;47395;42.032;-8.634;2023-04-08T02:33:22;100805.66;;;11.41;70.30
61528;BME280;47395;42.032;-8.634;2023-04-08T02:35:26;100806.69;;;11.38;70.44
61528;BME280;47395;42.032;-8.634;2023-04-08T02:37:28;100817.28;;;11.36;70.39
61528;BME280;47395;42.032;-8.634;2023-04-08T02:39:31;100802.56;;;11.32;70.37
61528;BME280;47395;42.032;-8.634;2023-04-08T02:41:32;100804.41;;;11.30;70.24
61528;BME280;47395;42.032;-8.634;2023-04-08T02:43:33;100793.09;;;11.28;70.33
61528;BME280;47395;42.032;-8.634;2023-04-08T02:45:43;100801.94;;;11.27;70.19
61528;BME280;47395;42.032;-8.634;2023-04-08T02:47:44;100801.00;;;11.28;70.12
61528;BME280;47395;42.032;-8.634;2023-04-08T02:49:45;100797.44;;;11.29;69.86
61528;BME280;47395;42.032;-8.634;2023-04-08T02:51:46;100795.72;;;11.28;69.79
61528;BME280;47395;42.032;-8.634;2023-04-08T02:53:47;100801.75;;;11.30;69.46
61528;BME280;47395;42.032;-8.634;2023-04-08T02:55:48;100799.31;;;11.27;69.33
61528;BME280;47395;42.032;-8.634;2023-04-08T02:57:48;100795.56;;;10.96;68.96
61528;BME280;47395;42.032;-8.634;2023-04-08T02:59:49;100795.72;;;11.10;69.72
61528;BME280;47395;42.032;-8.634;2023-04-08T03:01:50;100791.47;;;11.08;69.66
61528;BME280;47395;42.032;-8.634;2023-04-08T03:03:51;100799.06;;;11.14;69.89
61528;BME280;47395;42.032;-8.634;2023-04-08T03:05:52;100789.13;;;11.19;69.78
61528;BME280;47395;42.032;-8.634;2023-04-08T03:07:53;100789.84;;;11.23;69.57
61528;BME280;47395;42.032;-8.634;2023-04-08T03:09:54;100793.25;;;11.25;69.57
61528;BME280;47395;42.032;-8.634;2023-04-08T03:11:55;100796.41;;;11.14;68.96
61528;BME280;47395;42.032;-8.634;2023-04-08T03:13:56;100791.22;;;11.13;69.62
61528;BME280;47395;42.032;-8.634;2023-04-08T03:15:57;100792.22;;;11.10;69.63
61528;BME280;47395;42.032;-8.634;2023-04-08T03:17:58;100793.31;;;11.06;70.04
61528;BME280;47395;42.032;-8.634;2023-04-08T03:20:00;100797.03;;;11.02;69.96
61528;BME280;47395;42.032;-8.634;2023-04-08T03:22:01;100789.44;;;10.95;70.32
61528;BME280;47395;42.032;-8.634;2023-04-08T03:24:02;100796.72;;;10.90;70.60
61528;BME280;47395;42.032;-8.634;2023-04-08T03:26:03;100793.16;;;10.91;70.46
61528;BME280;47395;42.032;-8.634;2023-04-08T03:28:04;100793.16;;;10.91;70.66
61528;BME280;47395;42.032;-8.634;2023-04-08T03:30:05;100789.75;;;10.89;71.00
61528;BME280;47395;42.032;-8.634;2023-04-08T03:32:07;100794.22;;;10.87;70.69
61528;BME280;47395;42.032;-8.634;2023-04-08T03:34:07;100791.03;;;10.80;71.17
61528;BME280;47395;42.032;-8.634;2023-04-08T03:36:08;100796.09;;;10.85;71.22
61528;BME280;47395;42.032;-8.634;2023-04-08T03:38:09;100792.28;;;10.91;71.27
61528;BME280;47395;42.032;-8.634;2023-04-08T03:40:11;100795.91;;;10.88;70.83
61528;BME280;47395;42.032;-8.634;2023-04-08T03:42:12;100790.50;;;10.91;70.99
61528;BME280;47395;42.032;-8.634;2023-04-08T03:44:13;100786.47;;;10.84;70.75
61528;BME280;47395;42.032;-8.634;2023-04-08T03:46:14;100785.75;;;10.80;71.16
61528;BME280;47395;42.032;-8.634;2023-04-08T03:48:14;100786.22;;;10.71;71.11
61528;BME280;47395;42.032;-8.634;2023-04-08T03:50:15;100784.34;;;10.73;71.44
61528;BME280;47395;42.032;-8.634;2023-04-08T03:52:16;100784.50;;;10.70;71.32
61528;BME280;47395;42.032;-8.634;2023-04-08T03:54:17;100784.34;;;10.73;71.02
61528;BME280;47395;42.032;-8.634;2023-04-08T03:56:19;100784.50;;;10.70;71.59
61528;BME280;47395;42.032;-8.634;2023-04-08T03:58:20;100781.94;;;10.68;71.41
61528;BME280;47395;42.032;-8.634;2023-04-08T04:00:21;100782.88;;;10.67;71.55
61528;BME280;47395;42.032;-8.634;2023-04-08T04:07:16;100782.22;;;10.62;72.12
61528;BME280;47395;42.032;-8.634;2023-04-08T04:09:17;100782.16;;;10.64;72.21
61528;BME280;47395;42.032;-8.634;2023-04-08T04:11:18;100784.78;;;10.64;71.98
61528;BME280;47395;42.032;-8.634;2023-04-08T04:13:18;100779.59;;;10.62;71.84
61528;BME280;47395;42.032;-8.634;2023-04-08T04:15:19;100784.09;;;10.60;71.75
61528;BME280;47395;42.032;-8.634;2023-04-08T04:17:20;100793.13;;;10.54;71.85
61528;BME280;47395;42.032;-8.634;2023-04-08T04:19:21;100788.94;;;10.50;71.71
61528;BME280;47395;42.032;-8.634;2023-04-08T04:21:22;100786.63;;;10.44;71.87
61528;BME280;47395;42.032;-8.634;2023-04-08T04:23:23;100788.50;;;10.40;71.60
61528;BME280;47395;42.032;-8.634;2023-04-08T04:25:25;100789.66;;;10.35;71.81
61528;BME280;47395;42.032;-8.634;2023-04-08T04:27:26;100791.50;;;10.32;71.72
61528;BME280;47395;42.032;-8.634;2023-04-08T04:29:27;100798.75;;;10.27;71.79
61528;BME280;47395;42.032;-8.634;2023-04-08T04:31:27;100785.72;;;10.24;72.01
61528;BME280;47395;42.032;-8.634;2023-04-08T04:33:29;100789.41;;;10.20;72.05
61528;BME280;47395;42.032;-8.634;2023-04-08T04:35:30;100790.34;;;10.19;72.01
61528;BME280;47395;42.032;-8.634;2023-04-08T04:37:31;100797.31;;;10.20;72.04
61528;BME280;47395;42.032;-8.634;2023-04-08T04:39:32;100789.34;;;10.22;72.13
61528;BME280;47395;42.032;-8.634;2023-04-08T04:41:33;100795.41;;;10.24;72.01
61528;BME280;47395;42.032;-8.634;2023-04-08T04:43:38;100795.50;;;10.22;72.02
61528;BME280;47395;42.032;-8.634;2023-04-08T04:45:39;100800.13;;;10.17;71.67
61528;BME280;47395;42.032;-8.634;2023-04-08T04:47:40;100799.31;;;10.15;71.68
61528;BME280;47395;42.032;-8.634;2023-04-08T04:49:41;100806.38;;;10.14;71.54
61528;BME280;47395;42.032;-8.634;2023-04-08T04:51:42;100804.44;;;10.18;71.85
61528;BME280;47395;42.032;-8.634;2023-04-08T04:53:43;100794.56;;;10.23;72.02
61528;BME280;47395;42.032;-8.634;2023-04-08T04:55:44;100799.56;;;10.29;71.98
61528;BME280;47395;42.032;-8.634;2023-04-08T04:57:44;100798.06;;;10.24;71.93
61528;BME280;47395;42.032;-8.634;2023-04-08T04:59:45;100802.38;;;10.25;71.89
61528;BME280;47395;42.032;-8.634;2023-04-08T05:01:46;100794.69;;;10.20;71.71
61528;BME280;47395;42.032;-8.634;2023-04-08T05:03:47;100796.47;;;10.19;71.79
61528;BME280;47395;42.032;-8.634;2023-04-08T05:05:52;100801.81;;;10.18;71.98
61528;BME280;47395;42.032;-8.634;2023-04-08T05:07:53;100799.25;;;10.16;72.04
61528;BME280;47395;42.032;-8.634;2023-04-08T05:09:54;100801.94;;;10.15;71.85
61528;BME280;47395;42.032;-8.634;2023-04-08T05:11:55;100809.91;;;10.13;72.07
61528;BME280;47395;42.032;-8.634;2023-04-08T05:13:56;100808.28;;;10.11;72.18
61528;BME280;47395;42.032;-8.634;2023-04-08T05:15:57;100815.28;;;10.12;72.23
61528;BME280;47395;42.032;-8.634;2023-04-08T05:17:58;100809.91;;;10.13;72.26
61528;BME280;47395;42.032;-8.634;2023-04-08T05:19:58;100818.69;;;10.14;72.41
61528;BME280;47395;42.032;-8.634;2023-04-08T05:22:00;100821.25;;;10.15;72.16
61528;BME280;47395;42.032;-8.634;2023-04-08T05:24:01;100813.34;;;10.15;72.12
61528;BME280;47395;42.032;-8.634;2023-04-08T05:26:02;100822.25;;;10.13;72.33
61528;BME280;47395;42.032;-8.634;2023-04-08T05:28:03;100819.53;;;10.14;72.43
61528;BME280;47395;42.032;-8.634;2023-04-08T05:30:04;100823.06;;;10.13;72.00
61528;BME280;47395;42.032;-8.634;2023-04-08T05:32:06;100818.75;;;10.12;71.85
61528;BME280;47395;42.032;-8.634;2023-04-08T05:34:06;100814.47;;;10.10;71.99
61528;BME280;47395;42.032;-8.634;2023-04-08T05:36:07;100821.59;;;10.08;72.08
61528;BME280;47395;42.032;-8.634;2023-04-08T05:38:08;100823.94;;;10.14;72.02
61528;BME280;47395;42.032;-8.634;2023-04-08T05:40:09;100820.13;;;10.21;72.17
61528;BME280;47395;42.032;-8.634;2023-04-08T05:42:11;100818.13;;;10.26;71.88
61528;BME280;47395;42.032;-8.634;2023-04-08T05:44:13;100819.53;;;10.34;71.63
61528;BME280;47395;42.032;-8.634;2023-04-08T05:46:14;100825.53;;;10.37;71.59
61528;BME280;47395;42.032;-8.634;2023-04-08T05:48:15;100827.16;;;10.40;71.32
61528;BME280;47395;42.032;-8.634;2023-04-08T05:50:16;100829.16;;;10.35;71.59
61528;BME280;47395;42.032;-8.634;2023-04-08T05:52:17;100826.78;;;10.28;71.37
61528;BME280;47395;42.032;-8.634;2023-04-08T05:54:18;100824.88;;;10.32;71.49
61528;BME280;47395;42.032;-8.634;2023-04-08T05:56:18;100830.94;;;10.34;71.63
61528;BME280;47395;42.032;-8.634;2023-04-08T05:58:20;100825.59;;;10.36;71.74
61528;BME280;47395;42.032;-8.634;2023-04-08T06:00:21;100830.72;;;10.39;71.62
61528;BME280;47395;42.032;-8.634;2023-04-08T06:02:22;100841.31;;;10.37;71.68
61528;BME280;47395;42.032;-8.634;2023-04-08T06:04:23;100838.88;;;10.32;71.62
61528;BME280;47395;42.032;-8.634;2023-04-08T06:06:24;100840.81;;;10.29;71.37
61528;BME280;47395;42.032;-8.634;2023-04-08T06:08:25;100843.00;;;10.19;71.61
61528;BME280;47395;42.032;-8.634;2023-04-08T06:10:26;100845.88;;;10.14;71.54
61528;BME280;47395;42.032;-8.634;2023-04-08T06:12:27;100853.91;;;10.11;71.38
61528;BME280;47395;42.032;-8.634;2023-04-08T06:14:28;100853.84;;;10.13;71.22
61528;BME280;47395;42.032;-8.634;2023-04-08T06:16:29;100862.25;;;10.21;70.88
61528;BME280;47395;42.032;-8.634;2023-04-08T06:18:30;100862.25;;;10.21;70.89
61528;BME280;47395;42.032;-8.634;2023-04-08T06:20:31;100867.50;;;10.21;70.64
61528;BME280;47395;42.032;-8.634;2023-04-08T06:22:31;100859.94;;;10.32;70.36
61528;BME280;47395;42.032;-8.634;2023-04-08T06:24:32;100867.50;;;10.40;70.29
61528;BME280;47395;42.032;-8.634;2023-04-08T06:26:33;100873.41;;;10.47;69.83
61528;BME280;47395;42.032;-8.634;2023-04-08T06:28:34;100868.53;;;10.57;69.46
61528;BME280;47395;42.032;-8.634;2023-04-08T06:30:35;100867.41;;;10.63;69.34
61528;BME280;47395;42.032;-8.634;2023-04-08T06:32:36;100873.94;;;10.73;68.85
61528;BME280;47395;42.032;-8.634;2023-04-08T06:34:37;100873.44;;;10.84;68.28
61528;BME280;47395;42.032;-8.634;2023-04-08T06:36:38;100873.72;;;10.97;67.78
61528;BME280;47395;42.032;-8.634;2023-04-08T06:38:39;100877.59;;;11.07;67.51
61528;BME280;47395;42.032;-8.634;2023-04-08T06:40:39;100884.78;;;11.23;67.14
61528;BME280;47395;42.032;-8.634;2023-04-08T06:42:40;100886.97;;;11.50;65.54
61528;BME280;47395;42.032;-8.634;2023-04-08T06:45:02;100885.31;;;12.00;64.52
61528;BME280;47395;42.032;-8.634;2023-04-08T06:47:03;100889.53;;;12.38;63.09
61528;BME280;47395;42.032;-8.634;2023-04-08T06:49:04;100890.13;;;12.76;61.88
61528;BME280;47395;42.032;-8.634;2023-04-08T06:51:06;100892.38;;;13.30;60.33
61528;BME280;47395;42.032;-8.634;2023-04-08T06:53:07;100890.06;;;13.56;59.43
61528;BME280;47395;42.032;-8.634;2023-04-08T06:55:08;100900.59;;;13.73;59.09
61528;BME280;47395;42.032;-8.634;2023-04-08T06:57:09;100891.69;;;13.88;58.54
61528;BME280;47395;42.032;-8.634;2023-04-08T06:59:10;100900.69;;;13.86;58.43
61528;BME280;47395;42.032;-8.634;2023-04-08T07:01:11;100905.94;;;14.31;57.53
61528;BME280;47395;42.032;-8.634;2023-04-08T07:03:12;100900.22;;;14.81;56.14
61528;BME280;47395;42.032;-8.634;2023-04-08T07:05:13;100902.38;;;15.16;54.81
61528;BME280;47395;42.032;-8.634;2023-04-08T07:07:14;100905.59;;;15.62;53.45
61528;BME280;47395;42.032;-8.634;2023-04-08T07:09:15;100906.50;;;16.14;51.80
61528;BME280;47395;42.032;-8.634;2023-04-08T07:11:16;100914.69;;;16.75;50.02
61528;BME280;47395;42.032;-8.634;2023-04-08T07:13:16;100918.34;;;17.47;48.64
61528;BME280;47395;42.032;-8.634;2023-04-08T07:15:17;100908.25;;;18.22;47.15
61528;BME280;47395;42.032;-8.634;2023-04-08T07:17:18;100913.78;;;18.76;45.84
61528;BME280;47395;42.032;-8.634;2023-04-08T07:19:19;100920.34;;;19.28;44.25
61528;BME280;47395;42.032;-8.634;2023-04-08T07:21:20;100915.16;;;19.90;42.80
61528;BME280;47395;42.032;-8.634;2023-04-08T07:23:21;100923.34;;;20.41;42.30
61528;BME280;47395;42.032;-8.634;2023-04-08T07:25:22;100912.78;;;20.18;42.16
61528;BME280;47395;42.032;-8.634;2023-04-08T07:27:23;100917.97;;;19.67;43.11
61528;BME280;47395;42.032;-8.634;2023-04-08T07:29:24;100927.56;;;20.13;42.28
61528;BME280;47395;42.032;-8.634;2023-04-08T07:31:25;100923.72;;;20.37;41.57
61528;BME280;47395;42.032;-8.634;2023-04-08T07:33:26;100929.34;;;20.33;41.48
61528;BME280;47395;42.032;-8.634;2023-04-08T07:35:28;100932.63;;;20.47;40.77
61528;BME280;47395;42.032;-8.634;2023-04-08T07:37:29;100926.50;;;20.66;40.78
61528;BME280;47395;42.032;-8.634;2023-04-08T07:39:29;100933.31;;;20.80;41.30
61528;BME280;47395;42.032;-8.634;2023-04-08T07:41:30;100933.81;;;21.64;39.63
61528;BME280;47395;42.032;-8.634;2023-04-08T07:43:32;100932.78;;;22.05;38.54
61528;BME280;47395;42.032;-8.634;2023-04-08T07:45:34;100934.03;;;22.11;38.33
61528;BME280;47395;42.032;-8.634;2023-04-08T07:47:35;100933.84;;;22.22;37.25
61528;BME280;47395;42.032;-8.634;2023-04-08T07:49:36;100934.16;;;23.21;36.75
61528;BME280;47395;42.032;-8.634;2023-04-08T07:51:38;100938.94;;;23.91;35.67
61528;BME280;47395;42.032;-8.634;2023-04-08T07:53:39;100944.31;;;24.44;33.78
61528;BME280;47395;42.032;-8.634;2023-04-08T07:55:40;100944.53;;;25.10;33.48
61528;BME280;47395;42.032;-8.634;2023-04-08T07:57:41;100943.72;;;25.43;33.07
61528;BME280;47395;42.032;-8.634;2023-04-08T07:59:42;100944.72;;;25.25;32.54
61528;BME280;47395;42.032;-8.634;2023-04-08T08:01:43;100945.91;;;25.23;33.92
61528;BME280;47395;42.032;-8.634;2023-04-08T08:03:44;100937.66;;;24.64;34.25
61528;BME280;47395;42.032;-8.634;2023-04-08T08:05:47;100946.53;;;25.00;34.13
61528;BME280;47395;42.032;-8.634;2023-04-08T08:07:48;100946.22;;;24.95;33.18
61528;BME280;47395;42.032;-8.634;2023-04-08T08:09:50;100943.59;;;24.33;33.40
61528;BME280;47395;42.032;-8.634;2023-04-08T08:11:51;100951.13;;;25.16;32.66
61528;BME280;47395;42.032;-8.634;2023-04-08T08:13:52;100946.78;;;25.73;32.64
61528;BME280;47395;42.032;-8.634;2023-04-08T08:15:52;100950.19;;;26.80;30.97
61528;BME280;47395;42.032;-8.634;2023-04-08T08:17:53;100944.91;;;26.87;30.68
61528;BME280;47395;42.032;-8.634;2023-04-08T08:19:54;100951.03;;;26.81;30.98
61528;BME280;47395;42.032;-8.634;2023-04-08T08:21:55;100952.66;;;26.98;30.69
61528;BME280;47395;42.032;-8.634;2023-04-08T08:23:56;100949.53;;;27.10;30.19
61528;BME280;47395;42.032;-8.634;2023-04-08T08:26:06;100949.28;;;27.43;30.08
61528;BME280;47395;42.032;-8.634;2023-04-08T08:28:08;100957.41;;;27.43;30.05
61528;BME280;47395;42.032;-8.634;2023-04-08T08:30:10;100951.78;;;28.89;29.62
61528;BME280;47395;42.032;-8.634;2023-04-08T08:32:11;100962.16;;;29.66;25.53
61528;BME280;47395;42.032;-8.634;2023-04-08T08:34:12;100958.09;;;30.47;26.71
61528;BME280;47395;42.032;-8.634;2023-04-08T08:36:12;100956.97;;;30.77;23.51
61528;BME280;47395;42.032;-8.634;2023-04-08T08:38:13;100961.72;;;31.44;25.01
61528;BME280;47395;42.032;-8.634;2023-04-08T08:40:15;100966.47;;;32.16;24.50
61528;BME280;47395;42.032;-8.634;2023-04-08T08:42:23;100963.13;;;32.14;23.06
61528;BME280;47395;42.032;-8.634;2023-04-08T08:44:24;100973.66;;;31.63;21.99
61528;BME280;47395;42.032;-8.634;2023-04-08T08:46:26;100970.84;;;32.38;21.96
61528;BME280;47395;42.032;-8.634;2023-04-08T08:48:27;100971.81;;;32.64;21.28
61528;BME280;47395;42.032;-8.634;2023-04-08T08:50:28;100970.69;;;33.43;20.65
61528;BME280;47395;42.032;-8.634;2023-04-08T08:52:29;100987.59;;;34.28;20.20
61528;BME280;47395;42.032;-8.634;2023-04-08T08:54:30;100973.72;;;33.85;21.86
61528;BME280;47395;42.032;-8.634;2023-04-08T08:56:33;100981.16;;;34.22;19.58
61528;BME280;47395;42.032;-8.634;2023-04-08T08:58:34;100985.78;;;33.78;21.58
61528;BME280;47395;42.032;-8.634;2023-04-08T09:00:40;100988.50;;;34.22;19.78
61528;BME280;47395;42.032;-8.634;2023-04-08T09:02:44;100984.75;;;34.72;21.77
61528;BME280;47395;42.032;-8.634;2023-04-08T09:04:58;100986.66;;;34.72;20.74
61528;BME280;47395;42.032;-8.634;2023-04-08T09:07:09;100987.22;;;34.93;20.10
61528;BME280;47395;42.032;-8.634;2023-04-08T09:09:11;100985.31;;;35.36;19.70
61528;BME280;47395;42.032;-8.634;2023-04-08T09:11:19;100981.69;;;35.66;19.03
61528;BME280;47395;42.032;-8.634;2023-04-08T09:13:23;100984.63;;;33.67;22.26
61528;BME280;47395;42.032;-8.634;2023-04-08T09:15:24;100986.56;;;34.79;21.01
61528;BME280;47395;42.032;-8.634;2023-04-08T09:17:38;100983.88;;;35.21;20.34
61528;BME280;47395;42.032;-8.634;2023-04-08T09:20:07;100977.72;;;35.38;21.07
61528;BME280;47395;42.032;-8.634;2023-04-08T09:22:11;100986.94;;;36.15;19.83
61528;BME280;47395;42.032;-8.634;2023-04-08T09:24:28;100980.63;;;34.82;19.69
61528;BME280;47395;42.032;-8.634;2023-04-08T09:26:29;100984.44;;;35.66;19.56
61528;BME280;47395;42.032;-8.634;2023-04-08T09:28:30;100978.72;;;35.79;20.02
61528;BME280;47395;42.032;-8.634;2023-04-08T09:30:31;100984.75;;;35.34;19.34
61528;BME280;47395;42.032;-8.634;2023-04-08T09:32:48;100981.66;;;35.54;20.08
61528;BME280;47395;42.032;-8.634;2023-04-08T09:34:49;100979.97;;;34.49;20.56
61528;BME280;47395;42.032;-8.634;2023-04-08T09:36:51;100989.34;;;34.41;20.89
61528;BME280;47395;42.032;-8.634;2023-04-08T09:38:52;100976.56;;;33.46;21.42
61528;BME280;47395;42.032;-8.634;2023-04-08T09:40:54;100982.03;;;34.16;19.63
61528;BME280;47395;42.032;-8.634;2023-04-08T09:42:56;100978.66;;;33.95;21.86
61528;BME280;47395;42.032;-8.634;2023-04-08T09:44:58;100975.81;;;34.09;20.56
61528;BME280;47395;42.032;-8.634;2023-04-08T09:47:07;100963.16;;;33.13;22.46
61528;BME280;47395;42.032;-8.634;2023-04-08T09:49:27;100962.91;;;33.14;22.80
61528;BME280;47395;42.032;-8.634;2023-04-08T09:51:31;100965.47;;;34.30;19.82
61528;BME280;47395;42.032;-8.634;2023-04-08T09:53:35;100972.53;;;35.72;18.31
61528;BME280;47395;42.032;-8.634;2023-04-08T09:55:38;100970.78;;;36.43;19.78
61528;BME280;47395;42.032;-8.634;2023-04-08T09:57:49;100965.69;;;37.39;18.35
61528;BME280;47395;42.032;-8.634;2023-04-08T10:00:03;100959.69;;;37.25;17.90
61528;BME280;47395;42.032;-8.634;2023-04-08T10:02:18;100971.84;;;38.03;17.31
61528;BME280;47395;42.032;-8.634;2023-04-08T10:04:25;100966.19;;;36.19;19.47
61528;BME280;47395;42.032;-8.634;2023-04-08T10:06:28;100963.03;;;36.40;18.16
61528;BME280;47395;42.032;-8.634;2023-04-08T10:08:31;100967.25;;;36.06;20.37
61528;BME280;47395;42.032;-8.634;2023-04-08T10:10:38;100964.50;;;36.60;19.78
61528;BME280;47395;42.032;-8.634;2023-04-08T10:12:40;100962.97;;;36.93;19.27
61528;BME280;47395;42.032;-8.634;2023-04-08T10:14:41;100958.69;;;37.66;18.05
61528;BME280;47395;42.032;-8.634;2023-04-08T10:16:42;100969.97;;;38.09;17.52
61528;BME280;47395;42.032;-8.634;2023-04-08T10:18:43;100959.16;;;37.80;18.35
61528;BME280;47395;42.032;-8.634;2023-04-08T10:20:48;100961.66;;;37.81;18.22
61528;BME280;47395;42.032;-8.634;2023-04-08T10:22:49;100957.19;;;37.23;18.84
61528;BME280;47395;42.032;-8.634;2023-04-08T10:25:42;100956.84;;;37.71;18.35
61528;BME280;47395;42.032;-8.634;2023-04-08T10:27:39;100958.94;;;38.48;18.22
61528;BME280;47395;42.032;-8.634;2023-04-08T10:29:42;100963.69;;;38.31;17.49
61528;BME280;47395;42.032;-8.634;2023-04-08T10:31:44;100968.66;;;38.11;18.08
61528;BME280;47395;42.032;-8.634;2023-04-08T10:33:45;100970.09;;;38.36;17.95
61528;BME280;47395;42.032;-8.634;2023-04-08T10:35:49;100967.78;;;37.88;18.00
61528;BME280;47395;42.032;-8.634;2023-04-08T10:37:52;100965.56;;;38.25;18.49
61528;BME280;47395;42.032;-8.634;2023-04-08T10:39:53;100970.22;;;39.02;16.60